Time;durP1;ratioP1;P1;durP2;ratioP2;P2;SDS_P1;SDS_P2;PMS_P1;PMS_P2;Temp;Humidity;BMP_temperature;BMP_pressure;BME280_temperature;BME280_humidity;BME280_pressure;Samples;Min_cycle;Max_cycle;Signal;HPM_P1;HPM_P2
2024/01/11 00:02:04;;;;;;;;;12.00;9.00;;;;;21.24;41.50;101865.77;112112;1254;20827;-37
2024/01/11 00:04:32;;;;;;;;;7.00;7.00;;;;;21.24;41.22;101864.67;112025;1262;19544;-37
2024/01/11 00:06:59;;;;;;;;;9.00;7.00;;;;;21.23;41.34;101859.54;112128;1247;21351;-38
2024/01/11 00:09:26;;;;;;;;;10.00;9.00;;;;;21.23;41.41;101866.84;112092;1254;21032;-37
2024/01/11 00:11:54;;;;;;;;;12.50;9.00;;;;;21.23;41.65;101885.86;112031;1262;18628;-38
2024/01/11 00:14:21;;;;;;;;;9.00;9.00;;;;;21.24;41.44;101902.66;112029;1247;20097;-37
2024/01/11 00:16:48;;;;;;;;;9.00;9.00;;;;;21.24;41.25;101905.89;111688;1246;478577;-39
2024/01/11 00:19:16;;;;;;;;;7.00;7.00;;;;;21.24;41.08;101903.16;112073;1262;19550;-36
2024/01/11 00:21:43;;;;;;;;;9.00;7.00;;;;;21.23;41.28;101890.88;112073;1262;18709;-36
2024/01/11 00:24:10;;;;;;;;;7.00;7.00;;;;;21.23;41.19;101875.18;112137;1247;19348;-37
2024/01/11 00:26:37;;;;;;;;;6.00;6.00;;;;;21.23;41.08;101861.71;112071;1262;18210;-37
2024/01/11 00:29:05;;;;;;;;;10.00;9.00;;;;;21.22;41.23;101846.27;112156;1247;20074;-37
2024/01/11 00:31:32;;;;;;;;;7.00;7.00;;;;;21.23;41.20;101842.86;112064;1247;20958;-36
2024/01/11 00:33:59;;;;;;;;;9.50;7.00;;;;;21.23;41.38;101858.77;112221;1262;18633;-36
2024/01/11 00:36:28;;;;;;;;;9.50;7.00;;;;;21.23;41.10;101849.52;112071;1262;18655;-40
2024/01/11 00:38:55;;;;;;;;;9.00;6.00;;;;;21.24;41.24;101848.86;112191;1247;20718;-37
2024/01/11 00:41:22;;;;;;;;;7.00;6.00;;;;;21.23;41.35;101846.84;112073;1247;19604;-38
2024/01/11 00:43:50;;;;;;;;;7.00;6.33;;;;;21.23;41.14;101847.21;112244;1247;20391;-36
2024/01/11 00:46:17;;;;;;;;;6.00;6.00;;;;;21.23;40.97;101837.08;112068;1262;20811;-37
2024/01/11 00:48:44;;;;;;;;;9.00;8.00;;;;;21.22;41.06;101835.38;112248;1262;18216;-36
2024/01/11 00:51:12;;;;;;;;;7.00;6.67;;;;;21.21;41.22;101831.09;112130;1254;18643;-36
2024/01/11 00:53:39;;;;;;;;;7.00;6.67;;;;;21.21;41.16;101838.39;112089;1247;20982;-37
2024/01/11 00:56:07;;;;;;;;;10.00;9.00;;;;;21.22;40.89;101830.41;112124;1262;18193;-37
2024/01/11 00:58:34;;;;;;;;;8.00;7.00;;;;;21.21;41.18;101834.79;112217;1248;20093;-38
2024/01/11 01:01:01;;;;;;;;;9.00;7.00;;;;;21.21;41.03;101839.98;112124;1257;20952;-37
2024/01/11 01:03:29;;;;;;;;;10.00;7.00;;;;;21.21;40.83;101841.54;112021;1262;19289;-38
2024/01/11 01:05:56;;;;;;;;;7.00;6.50;;;;;21.22;40.86;101843.42;112205;1247;20396;-38
2024/01/11 01:08:23;;;;;;;;;6.00;6.00;;;;;21.22;41.14;101845.55;112016;1262;20727;-37
2024/01/11 01:10:51;;;;;;;;;9.00;8.00;;;;;21.21;41.04;101843.63;112211;1247;19623;-36
2024/01/11 01:13:18;;;;;;;;;9.00;7.00;;;;;21.21;40.82;101846.02;112045;1262;19896;-37
2024/01/11 01:15:45;;;;;;;;;7.00;7.00;;;;;21.21;40.84;101847.49;112264;1247;20823;-37
2024/01/11 01:18:13;;;;;;;;;6.00;6.00;;;;;21.21;40.86;101840.66;112063;1254;19498;-39
2024/01/11 01:20:40;;;;;;;;;9.00;7.00;;;;;21.21;40.86;101846.08;112251;1247;20162;-36
2024/01/11 01:23:07;;;;;;;;;6.00;6.00;;;;;21.21;40.78;101841.54;112156;1247;20807;-38
2024/01/11 01:25:34;;;;;;;;;6.00;6.00;;;;;21.20;41.00;101845.12;112120;1254;20223;-36
2024/01/11 01:28:02;;;;;;;;;6.00;6.00;;;;;21.19;40.90;101842.88;112121;1254;19880;-37
2024/01/11 01:30:29;;;;;;;;;9.00;7.00;;;;;21.19;40.86;101852.02;112062;1250;20815;-40
2024/01/11 01:32:57;;;;;;;;;9.00;6.00;;;;;21.19;40.78;101851.27;112175;1247;20811;-39
2024/01/11 01:35:24;;;;;;;;;6.00;6.00;;;;;21.19;40.85;101849.41;112069;1251;19972;-39
2024/01/11 01:37:51;;;;;;;;;5.33;4.67;;;;;21.20;40.75;101846.38;112171;1246;20773;-40
2024/01/11 01:40:18;;;;;;;;;;;;;;;21.20;40.76;101847.80;112058;1256;19601;-39
2024/01/11 01:42:46;;;;;;;;;4.00;4.00;;;;;21.20;40.71;101847.63;112222;1246;19704;-36
2024/01/11 01:45:13;;;;;;;;;6.00;6.00;;;;;21.20;40.87;101847.14;112068;1247;20849;-38
2024/01/11 01:47:40;;;;;;;;;9.00;7.00;;;;;21.19;40.66;101837.48;112042;1262;18142;-37
2024/01/11 01:50:08;;;;;;;;;6.00;6.00;;;;;21.18;40.88;101827.22;112093;1247;21199;-37
2024/01/11 01:52:35;;;;;;;;;4.00;4.00;;;;;21.18;40.87;101829.39;112084;1247;20840;-39
2024/01/11 01:55:02;;;;;;;;;4.00;4.00;;;;;21.19;40.72;101832.41;112123;1250;20664;-36
2024/01/11 01:57:30;;;;;;;;;6.00;4.00;;;;;21.20;40.77;101840.09;112147;1248;20122;-38
2024/01/11 01:59:57;;;;;;;;;6.50;6.00;;;;;21.20;40.94;101854.81;112167;1262;19308;-37
2024/01/11 02:02:24;;;;;;;;;6.00;6.00;;;;;21.19;40.73;101869.73;112076;1249;19661;-37
2024/01/11 02:04:51;;;;;;;;;7.00;6.00;;;;;21.18;40.87;101882.14;112103;1247;21294;-38
2024/01/11 02:07:19;;;;;;;;;4.00;3.00;;;;;21.19;40.90;101873.45;112027;1262;19460;-36
2024/01/11 02:09:46;;;;;;;;;4.00;4.00;;;;;21.18;40.85;101860.46;112056;1247;21247;-37
2024/01/11 02:12:14;;;;;;;;;4.00;4.00;;;;;21.18;40.81;101855.45;112063;1262;18640;-36
2024/01/11 02:14:42;;;;;;;;;7.00;6.00;;;;;21.18;40.69;101841.43;112076;1248;20813;-37
2024/01/11 02:17:09;;;;;;;;;4.00;4.00;;;;;21.19;40.73;101835.67;112031;1247;19643;-36
2024/01/11 02:19:36;;;;;;;;;6.00;4.00;;;;;21.18;40.61;101834.61;112062;1247;21329;-37
2024/01/11 02:22:04;;;;;;;;;6.00;4.00;;;;;21.17;40.82;101834.98;112051;1262;19316;-36
2024/01/11 02:24:31;;;;;;;;;6.00;6.00;;;;;21.17;40.79;101823.81;112104;1262;18210;-38
2024/01/11 02:26:59;;;;;;;;;6.00;6.00;;;;;21.17;40.55;101821.92;112030;1247;20143;-37
2024/01/11 02:29:27;;;;;;;;;6.00;4.00;;;;;21.16;40.63;101819.89;112078;1262;19375;-38
2024/01/11 02:31:54;;;;;;;;;5.00;4.00;;;;;21.16;40.68;101818.52;112079;1262;19532;-37
2024/01/11 02:34:21;;;;;;;;;7.00;6.00;;;;;21.17;40.58;101809.70;112143;1262;20240;-37
2024/01/11 02:36:49;;;;;;;;;6.00;4.00;;;;;21.17;40.60;101803.65;112038;1247;20848;-38
2024/01/11 02:39:16;;;;;;;;;6.00;4.00;;;;;21.17;40.58;101798.41;112144;1262;18195;-36
2024/01/11 02:41:44;;;;;;;;;6.67;6.00;;;;;21.18;40.52;101798.60;112029;1262;18650;-38
2024/01/11 02:44:11;;;;;;;;;4.00;4.00;;;;;21.17;40.36;101799.95;112199;1246;19359;-36
2024/01/11 02:46:38;;;;;;;;;4.00;4.00;;;;;21.17;40.66;101794.88;112056;1250;19686;-39
2024/01/11 02:49:06;;;;;;;;;6.00;4.00;;;;;21.17;40.58;101795.52;112188;1262;21299;-37
2024/01/11 02:51:33;;;;;;;;;6.00;4.00;;;;;21.16;40.52;101796.60;112020;1247;21255;-36
2024/01/11 02:54:01;;;;;;;;;5.00;4.00;;;;;21.17;40.56;101805.45;112249;1247;19679;-38
2024/01/11 02:56:28;;;;;;;;;4.00;4.00;;;;;21.17;40.38;101799.13;112052;1262;20198;-38
2024/01/11 02:58:55;;;;;;;;;5.00;4.00;;;;;21.16;40.52;101798.20;112193;1248;19913;-40
2024/01/11 03:01:23;;;;;;;;;4.00;4.00;;;;;21.16;40.42;101790.29;112121;1247;19666;-37
2024/01/11 03:03:50;;;;;;;;;4.00;4.00;;;;;21.17;40.53;101769.76;112131;1262;20410;-36
2024/01/11 03:06:21;;;;;;;;;6.00;4.00;;;;;21.16;40.38;101756.94;112114;1247;21112;-37
2024/01/11 03:08:49;;;;;;;;;4.00;4.00;;;;;21.17;40.30;101746.16;112063;1247;19555;-36
2024/01/11 03:11:16;;;;;;;;;4.00;4.00;;;;;21.16;40.48;101738.41;112253;1247;20378;-36
2024/01/11 03:13:44;;;;;;;;;4.00;4.00;;;;;21.17;40.50;101735.87;112070;1262;20841;-37
2024/01/11 03:16:11;;;;;;;;;4.00;4.00;;;;;21.18;40.47;101725.25;112263;1247;19617;-38
2024/01/11 03:18:39;;;;;;;;;4.00;4.00;;;;;21.17;40.27;101725.02;112080;1262;20046;-37
2024/01/11 03:21:06;;;;;;;;;4.00;4.00;;;;;21.16;40.57;101718.46;112213;1262;19517;-38
2024/01/11 03:23:34;;;;;;;;;4.00;4.00;;;;;21.16;40.52;101720.38;112042;1262;19588;-35
2024/01/11 03:26:01;;;;;;;;;6.00;6.00;;;;;21.16;40.30;101731.27;112204;1247;19983;-36
2024/01/11 03:28:28;;;;;;;;;6.00;4.00;;;;;21.16;40.28;101732.63;112075;1247;19334;-36
2024/01/11 03:30:56;;;;;;;;;3.67;3.67;;;;;21.15;40.34;101719.60;112175;1248;20063;-37
2024/01/11 03:33:23;;;;;;;;;6.00;4.00;;;;;21.16;40.35;101713.61;112072;1247;18605;-37
2024/01/11 03:35:51;;;;;;;;;3.00;3.00;;;;;21.16;40.35;101714.27;112084;1246;20594;-39
2024/01/11 03:38:18;;;;;;;;;6.67;4.00;;;;;21.16;40.04;101708.65;112081;1262;19515;-37
2024/01/11 03:40:46;;;;;;;;;4.00;4.00;;;;;21.16;40.19;101707.52;112046;1247;19942;-36
2024/01/11 03:43:13;;;;;;;;;5.00;3.50;;;;;21.15;40.33;101713.87;112105;1262;19367;-36
2024/01/11 03:45:41;;;;;;;;;5.00;4.00;;;;;21.15;40.28;101702.98;112020;1247;19698;-39
2024/01/11 03:48:08;;;;;;;;;3.50;3.50;;;;;21.15;40.26;101694.14;112098;1262;20133;-36
2024/01/11 03:50:35;;;;;;;;;5.33;4.00;;;;;21.16;40.20;101696.50;112043;1251;21381;-38
2024/01/11 03:53:04;;;;;;;;;5.00;4.00;;;;;21.15;40.39;101692.74;112136;1247;19688;-37
2024/01/11 03:55:31;;;;;;;;;5.00;5.00;;;;;21.15;40.23;101682.86;112035;1262;18659;-38
2024/01/11 03:57:59;;;;;;;;;6.00;5.00;;;;;21.15;40.21;101684.49;112079;1247;21141;-37
2024/01/11 04:00:26;;;;;;;;;4.00;3.50;;;;;21.14;40.06;101686.50;112051;1262;18214;-39
2024/01/11 04:02:53;;;;;;;;;6.33;4.67;;;;;21.14;40.20;101671.95;112060;1262;20143;-38
2024/01/11 04:05:21;;;;;;;;;4.00;3.00;;;;;21.14;40.25;101657.69;112080;1262;20989;-36
2024/01/11 04:07:48;;;;;;;;;3.50;3.50;;;;;21.14;40.07;101653.70;112071;1262;19666;-37
2024/01/11 04:10:16;;;;;;;;;4.00;4.00;;;;;21.15;40.27;101656.39;112083;1262;20043;-37
2024/01/11 04:12:44;;;;;;;;;4.00;4.00;;;;;21.14;40.34;101654.25;112061;1246;20850;-39
2024/01/11 04:15:11;;;;;;;;;4.00;3.00;;;;;21.14;40.33;101646.34;112041;1247;19972;-36
2024/01/11 04:17:39;;;;;;;;;3.00;3.00;;;;;21.14;40.11;101643.99;112057;1247;20048;-38
2024/01/11 04:20:06;;;;;;;;;6.00;6.00;;;;;21.14;40.26;101633.32;112056;1247;20874;-37
2024/01/11 04:22:33;;;;;;;;;4.00;4.00;;;;;21.15;39.89;101639.48;112068;1262;19262;-36
2024/01/11 04:25:01;;;;;;;;;6.67;4.00;;;;;21.13;40.17;101645.02;112052;1262;20049;-36
2024/01/11 04:27:28;;;;;;;;;9.00;6.00;;;;;21.13;40.15;101644.86;112060;1248;20848;-36
2024/01/11 04:29:56;;;;;;;;;6.00;4.00;;;;;21.13;40.39;101644.27;112079;1262;18753;-37
2024/01/11 04:32:23;;;;;;;;;4.00;4.00;;;;;21.13;40.06;101642.08;112032;1262;18846;-36
2024/01/11 04:34:51;;;;;;;;;4.00;4.00;;;;;21.14;40.30;101638.12;112095;1247;20851;-37
2024/01/11 04:37:18;;;;;;;;;6.00;6.00;;;;;21.13;40.48;101634.35;112013;1262;18170;-37
2024/01/11 04:39:46;;;;;;;;;4.00;4.00;;;;;21.12;40.01;101638.20;112119;1247;18947;-37
2024/01/11 04:42:13;;;;;;;;;6.00;6.00;;;;;21.14;40.23;101631.74;112052;1262;20795;-36
2024/01/11 04:44:40;;;;;;;;;6.00;4.00;;;;;21.12;40.25;101623.88;112121;1250;19636;-37
2024/01/11 04:47:08;;;;;;;;;6.00;6.00;;;;;21.12;40.10;101621.91;112094;1262;20004;-37
2024/01/11 04:49:35;;;;;;;;;4.00;4.00;;;;;21.12;40.33;101613.58;112141;1262;19332;-36
2024/01/11 04:52:03;;;;;;;;;4.00;4.00;;;;;21.13;40.19;101617.11;112080;1247;19692;-36
2024/01/11 04:54:30;;;;;;;;;6.00;4.00;;;;;21.12;40.29;101623.80;112166;1247;18722;-36
2024/01/11 04:56:58;;;;;;;;;6.00;6.00;;;;;21.13;40.00;101630.20;112097;1254;19427;-38
2024/01/11 04:59:25;;;;;;;;;4.00;4.00;;;;;21.13;40.41;101643.34;112152;1262;18161;-37
2024/01/11 05:01:53;;;;;;;;;4.00;4.00;;;;;21.13;40.05;101650.48;112087;1262;20159;-40
2024/01/11 05:04:20;;;;;;;;;7.00;6.00;;;;;21.13;40.21;101650.52;112178;1247;20813;-38
2024/01/11 05:06:48;;;;;;;;;4.00;4.00;;;;;21.12;40.09;101643.20;112126;1247;19884;-39
2024/01/11 05:09:15;;;;;;;;;4.00;4.00;;;;;21.12;40.16;101637.38;112190;1262;19975;-39
2024/01/11 05:11:43;;;;;;;;;6.00;4.00;;;;;21.13;40.21;101638.54;112081;1247;20894;-37
2024/01/11 05:14:10;;;;;;;;;5.67;4.67;;;;;21.13;40.31;101641.16;112141;1262;19557;-38
2024/01/11 05:16:39;;;;;;;;;6.50;6.50;;;;;21.12;40.18;101640.81;112006;1262;21167;-36
2024/01/11 05:19:07;;;;;;;;;3.33;3.00;;;;;21.12;40.08;101637.28;112135;1248;20861;-36
2024/01/11 05:21:34;;;;;;;;;6.00;6.00;;;;;21.12;39.83;101629.21;112060;1247;19489;-39
2024/01/11 05:24:02;;;;;;;;;7.00;6.00;;;;;21.13;40.13;101625.08;112088;1262;19957;-37
2024/01/11 05:26:29;;;;;;;;;6.00;5.00;;;;;21.12;40.26;101608.17;112056;1247;20738;-39
2024/01/11 05:28:57;;;;;;;;;5.00;5.00;;;;;21.11;40.00;101593.39;112107;1262;19557;-37
2024/01/11 05:31:24;;;;;;;;;7.00;6.00;;;;;21.10;40.30;101594.80;112044;1247;18707;-40
2024/01/11 05:33:51;;;;;;;;;4.00;4.00;;;;;21.11;40.12;101601.19;112197;1247;21148;-40
2024/01/11 05:36:19;;;;;;;;;6.00;6.00;;;;;21.12;40.07;101602.30;112155;1262;18209;-38
2024/01/11 05:38:46;;;;;;;;;7.00;4.00;;;;;21.14;40.09;101612.73;112241;1246;20155;-36
2024/01/11 05:41:14;;;;;;;;;5.00;5.00;;;;;21.13;40.08;101611.67;112148;1261;19339;-38
2024/01/11 05:43:42;;;;;;;;;6.50;6.00;;;;;21.12;40.08;101609.48;112144;1246;19618;-39
2024/01/11 05:46:09;;;;;;;;;10.00;7.00;;;;;21.11;40.31;101605.02;112209;1248;20374;-40
2024/01/11 05:48:37;;;;;;;;;7.00;6.00;;;;;21.12;40.45;101610.89;112200;1261;19837;-37
2024/01/11 05:51:04;;;;;;;;;7.00;6.00;;;;;21.11;40.21;101601.36;112179;1262;19940;-39
2024/01/11 05:53:35;;;;;;;;;9.00;7.00;;;;;21.11;40.35;101593.83;112168;1261;19983;-36
2024/01/11 05:56:03;;;;;;;;;7.00;6.00;;;;;21.11;40.35;101604.63;112178;1246;21139;-38
2024/01/11 05:58:30;;;;;;;;;8.00;7.00;;;;;21.11;40.39;101588.54;112220;1262;19524;-38
2024/01/11 06:00:57;;;;;;;;;7.00;7.00;;;;;21.12;40.34;101592.05;112171;1261;18611;-39
2024/01/11 06:03:25;;;;;;;;;6.00;6.00;;;;;21.12;40.26;101596.46;112260;1246;20717;-38
2024/01/11 06:05:52;;;;;;;;;5.00;5.00;;;;;21.11;40.35;101580.38;112192;1246;20993;-39
2024/01/11 06:08:20;;;;;;;;;6.33;6.00;;;;;21.11;40.41;101574.92;112271;1246;19983;-38
2024/01/11 06:10:47;;;;;;;;;9.00;7.00;;;;;21.10;40.31;101575.95;112113;1262;19686;-36
2024/01/11 06:13:15;;;;;;;;;6.00;5.33;;;;;21.10;40.26;101579.39;112273;1246;19577;-37
2024/01/11 06:15:42;;;;;;;;;8.00;7.00;;;;;21.10;40.36;101578.95;112144;1261;18999;-37
2024/01/11 06:18:09;;;;;;;;;4.67;4.67;;;;;21.10;40.38;101583.73;112261;1247;20799;-36
2024/01/11 06:20:37;;;;;;;;;6.00;4.00;;;;;21.10;40.35;101579.92;112156;1246;19650;-37
2024/01/11 06:23:04;;;;;;;;;6.00;6.00;;;;;21.10;40.36;101572.80;112199;1254;21097;-39
2024/01/11 06:25:32;;;;;;;;;7.00;7.00;;;;;21.10;40.32;101571.65;112211;1246;20775;-38
2024/01/11 06:27:59;;;;;;;;;6.50;6.00;;;;;21.10;40.52;101582.82;112107;1247;21137;-38
2024/01/11 06:30:26;;;;;;;;;6.00;6.00;;;;;21.10;40.32;101588.98;112193;1262;20145;-37
2024/01/11 06:32:54;;;;;;;;;7.00;7.00;;;;;21.10;40.23;101597.96;112035;1247;20848;-37
2024/01/11 06:35:21;;;;;;;;;4.00;4.00;;;;;21.09;40.14;101585.32;112213;1262;19542;-36
2024/01/11 06:37:49;;;;;;;;;6.00;6.00;;;;;21.09;40.46;101581.72;112025;1262;18696;-36
2024/01/11 06:40:16;;;;;;;;;7.00;6.33;;;;;21.09;40.40;101586.77;112241;1262;19373;-36
2024/01/11 06:42:44;;;;;;;;;6.00;6.00;;;;;21.09;40.15;101580.35;112042;1262;18208;-36
2024/01/11 06:45:11;;;;;;;;;5.00;5.00;;;;;21.09;40.35;101583.02;112251;1247;21078;-37
2024/01/11 06:47:38;;;;;;;;;6.00;4.67;;;;;21.08;40.43;101580.73;112051;1253;20791;-36
2024/01/11 06:50:06;;;;;;;;;7.00;6.50;;;;;21.09;40.48;101579.16;112261;1247;19768;-37
2024/01/11 06:52:33;;;;;;;;;10.00;9.00;;;;;21.10;40.31;101578.89;112125;1247;20010;-37
2024/01/11 06:55:01;;;;;;;;;7.00;7.00;;;;;21.10;40.31;101573.89;112258;1246;21940;-37
2024/01/11 06:57:28;;;;;;;;;7.00;7.00;;;;;21.14;40.00;101568.59;112093;1247;19959;-36
2024/01/11 06:59:56;;;;;;;;;14.00;7.00;;;;;21.12;40.32;101564.32;112291;1262;18657;-37
2024/01/11 07:02:23;;;;;;;;;10.00;9.00;;;;;21.15;40.55;101563.75;112065;1247;20901;-37
2024/01/11 07:04:51;;;;;;;;;6.00;6.00;;;;;21.16;40.43;101566.88;112249;1262;18592;-36
2024/01/11 07:07:18;;;;;;;;;6.50;5.00;;;;;21.17;40.63;101564.77;112103;1262;18655;-37
2024/01/11 07:09:45;;;;;;;;;6.00;6.00;;;;;21.18;41.07;101557.52;112261;1246;22033;-37
2024/01/11 07:12:13;;;;;;;;;9.00;7.00;;;;;21.24;40.81;101555.29;112090;1247;19614;-37
2024/01/11 07:14:40;;;;;;;;;6.00;6.00;;;;;21.28;40.86;101558.89;112178;1246;18649;-36
2024/01/11 07:17:08;;;;;;;;;4.00;4.00;;;;;21.32;40.81;101555.23;112119;1248;20957;-36
2024/01/11 07:19:36;;;;;;;;;9.00;7.00;;;;;21.37;40.68;101563.68;112207;1262;19579;-40
2024/01/11 07:22:04;;;;;;;;;7.67;6.00;;;;;21.28;41.14;101556.81;112050;1246;21224;-37
2024/01/11 07:24:37;;;;;;;;;6.67;6.67;;;;;21.25;41.21;101564.02;112168;1247;20820;-38
2024/01/11 07:27:04;;;;;;;;;6.00;6.00;;;;;21.23;41.63;101564.80;112056;1246;19684;-38
2024/01/11 07:29:32;;;;;;;;;6.00;6.00;;;;;21.22;41.93;101556.84;112143;1262;18782;-38
2024/01/11 07:31:59;;;;;;;;;8.00;7.00;;;;;21.20;41.82;101562.45;112068;1261;19394;-37
2024/01/11 07:34:26;;;;;;;;;7.00;7.00;;;;;21.15;41.73;101558.91;112223;1246;19662;-36
2024/01/11 07:36:54;;;;;;;;;6.00;6.00;;;;;21.15;41.68;101558.41;112137;1262;19995;-37
2024/01/11 07:39:22;;;;;;;;;6.00;6.00;;;;;21.14;41.83;101560.04;112216;1262;21053;-37
2024/01/11 07:41:49;;;;;;;;;6.50;6.00;;;;;21.14;41.93;101561.34;112140;1247;19888;-37
2024/01/11 07:44:17;;;;;;;;;7.00;6.00;;;;;21.12;41.99;101562.73;112274;1246;20306;-37
2024/01/11 07:46:44;;;;;;;;;9.00;8.00;;;;;21.10;42.02;101557.05;112128;1247;21997;-36
2024/01/11 07:49:12;;;;;;;;;7.00;7.00;;;;;21.10;41.87;101552.73;112253;1262;19524;-36
2024/01/11 07:51:39;;;;;;;;;6.00;6.00;;;;;21.08;41.90;101547.59;112127;1262;19962;-38
2024/01/11 07:54:07;;;;;;;;;6.00;6.00;;;;;21.07;41.90;101545.99;112268;1261;19392;-37
2024/01/11 07:56:35;;;;;;;;;7.00;7.00;;;;;21.06;42.20;101547.35;112114;1247;18350;-38
2024/01/11 07:59:02;;;;;;;;;8.00;6.50;;;;;21.03;42.10;101544.74;112238;1261;18595;-36
2024/01/11 08:01:29;;;;;;;;;7.00;7.00;;;;;21.06;42.14;101540.43;112098;1262;20716;-35
2024/01/11 08:03:57;;;;;;;;;6.00;6.00;;;;;21.09;42.34;101536.83;112246;1262;20695;-36
2024/01/11 08:06:24;;;;;;;;;7.00;6.50;;;;;21.09;42.01;101537.14;112156;1246;18645;-37
2024/01/11 08:08:52;;;;;;;;;6.00;6.00;;;;;21.15;42.12;101541.48;112249;1261;20809;-36
2024/01/11 08:11:19;;;;;;;;;7.00;7.00;;;;;21.24;42.57;101540.25;112130;1262;19597;-36
2024/01/11 08:13:47;;;;;;;;;6.00;4.00;;;;;21.36;42.37;101537.23;112240;1261;18610;-35
2024/01/11 08:16:15;;;;;;;;;7.00;7.00;;;;;21.31;42.55;101545.19;112146;1253;21080;-36
2024/01/11 08:18:43;;;;;;;;;7.00;6.50;;;;;21.27;42.54;101552.61;112242;1262;18174;-36
2024/01/11 08:21:11;;;;;;;;;7.00;7.00;;;;;21.29;42.62;101553.07;112127;1262;21162;-36
2024/01/11 08:23:40;;;;;;;;;9.00;7.00;;;;;21.37;42.46;101553.59;112172;1246;19383;-36
2024/01/11 08:26:08;;;;;;;;;7.00;7.00;;;;;21.41;42.51;101556.69;112243;1246;20072;-35
2024/01/11 08:28:35;;;;;;;;;7.00;6.00;;;;;21.43;42.40;101558.84;112132;1247;21144;-37
2024/01/11 08:31:04;;;;;;;;;7.00;6.00;;;;;21.33;42.83;101554.59;112175;1261;19500;-35
2024/01/11 08:33:32;;;;;;;;;6.00;6.00;;;;;21.34;43.19;101559.98;112186;1261;18254;-35
2024/01/11 08:35:59;;;;;;;;;6.00;6.00;;;;;21.41;43.05;101561.92;112141;1262;20999;-36
2024/01/11 08:38:26;;;;;;;;;7.00;7.00;;;;;21.35;42.98;101569.81;112242;1261;20685;-39
2024/01/11 08:40:54;;;;;;;;;12.00;10.00;;;;;21.36;43.26;101571.09;112152;1262;19739;-36
2024/01/11 08:43:21;;;;;;;;;7.00;7.00;;;;;21.31;43.08;101577.30;112214;1246;18863;-36
2024/01/11 08:45:49;;;;;;;;;7.00;7.00;;;;;21.30;43.52;101582.97;112134;1246;20781;-37
2024/01/11 08:48:17;;;;;;;;;6.00;6.00;;;;;21.30;44.34;101584.42;112193;1261;18918;-37
2024/01/11 08:50:44;;;;;;;;;6.50;6.00;;;;;21.31;44.43;101585.48;112196;1253;18812;-37
2024/01/11 08:53:12;;;;;;;;;6.00;5.00;;;;;21.36;43.96;101591.68;112273;1261;19356;-36
2024/01/11 08:55:39;;;;;;;;;4.00;4.00;;;;;21.51;44.21;101590.28;112130;1261;18184;-36
2024/01/11 08:58:07;;;;;;;;;9.00;7.00;;;;;21.63;43.61;101591.46;112202;1261;18679;-36
2024/01/11 09:00:34;;;;;;;;;7.00;6.00;;;;;21.43;43.93;101592.48;112158;1261;19410;-39
2024/01/11 09:03:01;;;;;;;;;6.50;6.00;;;;;21.39;44.02;101596.46;112146;1262;19574;-38
2024/01/11 09:05:29;;;;;;;;;9.00;6.00;;;;;21.36;44.00;101598.94;112125;1247;21230;-37
2024/01/11 09:07:56;;;;;;;;;6.50;6.50;;;;;21.37;43.97;101599.44;112155;1246;20692;-37
2024/01/11 09:10:24;;;;;;;;;6.50;6.50;;;;;21.43;43.63;101603.59;112118;1246;20885;-37
2024/01/11 09:12:53;;;;;;;;;6.00;6.00;;;;;21.42;43.60;101597.97;112196;1261;20642;-36
2024/01/11 09:15:21;;;;;;;;;6.50;6.00;;;;;21.39;43.79;101596.63;112149;1261;20685;-37
2024/01/11 09:17:48;;;;;;;;;7.00;6.50;;;;;21.42;43.83;101593.01;112159;1247;19643;-36
2024/01/11 09:20:16;;;;;;;;;9.50;9.00;;;;;21.44;43.93;101595.71;112139;1262;20339;-38
2024/01/11 09:22:43;;;;;;;;;6.33;6.33;;;;;21.46;44.03;101596.81;112100;1247;20967;-38
2024/01/11 09:25:11;;;;;;;;;37.00;33.00;;;;;21.42;43.88;101591.70;112094;1246;20665;-37
2024/01/11 09:27:38;;;;;;;;;27.00;21.50;;;;;21.47;43.92;101589.76;112100;1261;20096;-37
2024/01/11 09:30:05;;;;;;;;;70.00;57.00;;;;;21.57;43.87;101590.80;112098;1246;21053;-38
2024/01/11 09:32:33;;;;;;;;;75.00;56.00;;;;;21.51;44.51;101584.52;112020;1247;21464;-36
2024/01/11 09:35:00;;;;;;;;;86.00;62.00;;;;;21.66;44.17;101583.04;112017;1246;20133;-38
2024/01/11 09:37:28;;;;;;;;;;;;;;;21.71;43.99;101578.95;111987;1247;19357;-37
2024/01/11 09:39:55;;;;;;;;;80.50;59.00;;;;;21.64;44.18;101572.77;111970;1262;21563;-37
2024/01/11 09:42:23;;;;;;;;;79.00;58.00;;;;;21.49;44.51;101571.13;111981;1262;18750;-36
2024/01/11 09:44:50;;;;;;;;;75.00;57.00;;;;;21.42;45.04;101565.80;112001;1262;19387;-36
2024/01/11 09:47:18;;;;;;;;;71.50;49.00;;;;;21.44;44.51;101556.23;111992;1262;21079;-36
2024/01/11 09:49:45;;;;;;;;;57.33;45.00;;;;;21.48;44.74;101548.10;112130;1262;20161;-38
2024/01/11 09:52:14;;;;;;;;;51.00;44.00;;;;;21.51;44.83;101539.58;112038;1262;20749;-38
2024/01/11 09:54:41;;;;;;;;;52.00;42.00;;;;;21.40;45.07;101535.96;112080;1262;20122;-37
2024/01/11 09:57:09;;;;;;;;;45.50;36.50;;;;;21.38;45.12;101530.11;112019;1262;18878;-37
2024/01/11 09:59:36;;;;;;;;;40.00;31.50;;;;;21.36;44.89;101527.58;112079;1247;20014;-37
2024/01/11 10:02:07;;;;;;;;;37.00;30.50;;;;;21.34;44.41;101527.45;112043;1262;18816;-36
2024/01/11 10:04:37;;;;;;;;;34.00;30.00;;;;;21.30;45.05;101520.98;112222;1262;19157;-37
2024/01/11 10:07:04;;;;;;;;;37.50;35.50;;;;;21.27;45.09;101518.60;112062;1247;20697;-36
2024/01/11 10:09:31;;;;;;;;;33.00;25.00;;;;;21.26;44.67;101523.70;112087;1255;20447;-36
2024/01/11 10:11:59;;;;;;;;;35.00;31.33;;;;;21.26;44.89;101526.42;112032;1248;20222;-37
2024/01/11 10:14:26;;;;;;;;;38.00;30.00;;;;;21.32;44.53;101533.05;112118;1247;21081;-36
2024/01/11 10:16:54;;;;;;;;;25.00;25.00;;;;;21.29;44.54;101534.76;112041;1247;19968;-37
2024/01/11 10:19:21;;;;;;;;;27.00;24.00;;;;;21.25;44.57;101532.04;112110;1247;20191;-36
2024/01/11 10:21:49;;;;;;;;;25.00;22.00;;;;;21.23;44.37;101531.25;112050;1247;22089;-39
2024/01/11 10:24:16;;;;;;;;;31.00;24.00;;;;;21.22;44.27;101535.85;112109;1247;21237;-36
2024/01/11 10:26:43;;;;;;;;;24.00;24.00;;;;;21.21;44.41;101534.85;112086;1262;20038;-37
2024/01/11 10:29:13;;;;;;;;;30.67;22.00;;;;;21.21;44.22;101529.29;112139;1247;21029;-38
2024/01/11 10:31:40;;;;;;;;;25.00;22.00;;;;;21.23;44.26;101526.65;112207;1247;20277;-36
2024/01/11 10:34:08;;;;;;;;;31.00;27.00;;;;;21.27;44.00;101524.05;112069;1246;20511;-38
2024/01/11 10:36:35;;;;;;;;;25.00;22.00;;;;;21.24;43.98;101521.34;112090;1247;22128;-38
2024/01/11 10:39:04;;;;;;;;;21.50;18.50;;;;;21.19;43.97;101523.33;112088;1246;20003;-38
2024/01/11 10:41:31;;;;;;;;;28.50;23.00;;;;;21.18;44.07;101521.56;112168;1262;20075;-36
2024/01/11 10:43:58;;;;;;;;;28.00;25.00;;;;;21.17;44.05;101515.40;112073;1246;20950;-37
2024/01/11 10:46:26;;;;;;;;;26.50;18.50;;;;;21.15;44.23;101509.80;112178;1262;19940;-37
2024/01/11 10:48:53;;;;;;;;;33.50;24.00;;;;;21.15;44.06;101501.96;112055;1254;18758;-40
2024/01/11 10:51:21;;;;;;;;;24.00;18.00;;;;;21.15;43.89;101500.88;112138;1254;19419;-36
2024/01/11 10:53:50;;;;;;;;;19.00;18.00;;;;;21.15;43.77;101497.34;112041;1262;19023;-36
2024/01/11 10:56:18;;;;;;;;;;;;;;;21.15;43.72;101502.02;112046;1262;18778;-38
2024/01/11 10:58:46;;;;;;;;;17.00;16.00;;;;;21.14;43.82;101508.23;112121;1247;20725;-39
2024/01/11 11:01:13;;;;;;;;;22.00;16.00;;;;;21.14;43.61;101515.69;112071;1247;19415;-38
2024/01/11 11:03:42;;;;;;;;;19.00;16.00;;;;;21.16;43.54;101515.65;112095;1247;20357;-35
2024/01/11 11:06:10;;;;;;;;;22.00;19.00;;;;;21.19;43.53;101508.77;112153;1262;20679;-35
2024/01/11 11:08:37;;;;;;;;;24.00;21.00;;;;;21.22;43.93;101509.16;112101;1247;20365;-36
2024/01/11 11:11:05;;;;;;;;;19.00;18.00;;;;;21.29;43.77;101510.94;112143;1254;21117;-39
2024/01/11 11:13:34;;;;;;;;;19.00;16.00;;;;;21.26;43.17;101514.17;112091;1262;19312;-36
2024/01/11 11:16:03;;;;;;;;;24.00;18.00;;;;;21.12;42.06;101516.76;112054;1247;20008;-37